Time;durP1;ratioP1;P1;durP2;ratioP2;P2;SDS_P1;SDS_P2;PMS_P1;PMS_P2;Temp;Humidity;BMP_temperature;BMP_pressure;BME280_temperature;BME280_humidity;BME280_pressure;Samples;Min_cycle;Max_cycle;Signal;HPM_P1;HPM_P2
2023/11/22 00:01:30;;;;;;;;;;;11.10;99.90;;;;;;5014430;28;20339;-76
2023/11/22 00:03:55;;;;;;;;;;;11.10;99.90;;;;;;5013760;28;20004;-74
2023/11/22 00:06:21;;;;;;;;;;;11.10;99.90;;;;;;5014289;28;20016;-74
2023/11/22 00:08:47;;;;;;;;;;;11.10;99.90;;;;;;5012810;28;19910;-76
2023/11/22 00:11:13;;;;;;;;;;;11.10;99.90;;;;;;5014171;28;19917;-76
2023/11/22 00:13:39;;;;;;;;;;;11.10;99.90;;;;;;5013875;28;20288;-74
2023/11/22 00:16:04;;;;;;;;;;;11.10;99.90;;;;;;5012691;28;19909;-74
2023/11/22 00:18:30;;;;;;;;;;;11.10;99.90;;;;;;5014472;28;20326;-76
2023/11/22 00:20:57;;;;;;;;;;;11.10;99.90;;;;;;5013680;28;19925;-76
2023/11/22 00:23:27;;;;;;;;;;;11.10;99.90;;;;;;5014009;28;20372;-76
2023/11/22 00:25:53;;;;;;;;;;;11.10;99.90;;;;;;5005832;28;19916;-76
2023/11/22 00:28:18;;;;;;;;;;;11.10;99.90;;;;;;4999549;28;19914;-76
2023/11/22 00:30:44;;;;;;;;;;;11.10;99.90;;;;;;4994119;28;19946;-74
2023/11/22 00:33:09;;;;;;;;;;;11.10;99.90;;;;;;4994167;28;19910;-74
2023/11/22 00:35:35;;;;;;;;;;;11.10;99.90;;;;;;5011912;28;19910;-74
2023/11/22 00:38:01;;;;;;;;;;;11.10;99.90;;;;;;5013347;28;19917;-76
2023/11/22 00:40:26;;;;;;;;;;;11.10;99.90;;;;;;5012357;28;19917;-76
2023/11/22 00:42:52;;;;;;;;;;;11.10;99.90;;;;;;5012276;28;19928;-76
2023/11/22 00:45:18;;;;;;;;;;;11.10;99.90;;;;;;5013792;28;19916;-74
2023/11/22 00:47:44;;;;;;;;;;;11.10;99.90;;;;;;5013668;28;19913;-76
2023/11/22 00:50:09;;;;;;;;;;;11.10;99.90;;;;;;5013264;28;19910;-76
2023/11/22 00:52:35;;;;;;;;;;;11.00;99.90;;;;;;5013017;28;20280;-75
2023/11/22 00:55:01;;;;;;;;;;;11.00;99.90;;;;;;5012076;28;19973;-74
2023/11/22 00:57:30;;;;;;;;;;;11.00;99.90;;;;;;4992430;28;20094;-76
2023/11/22 00:59:56;;;;;;;;;;;11.00;99.90;;;;;;4993843;28;19917;-76
2023/11/22 01:02:21;;;;;;;;;;;11.00;99.90;;;;;;4995034;28;19913;-76
2023/11/22 01:04:47;;;;;;;;;;;11.00;99.90;;;;;;5011097;28;20388;-76
2023/11/22 01:07:12;;;;;;;;;;;11.00;99.90;;;;;;5012151;28;19909;-74
2023/11/22 01:09:38;;;;;;;;;;;11.00;99.90;;;;;;5012911;28;19917;-74
2023/11/22 01:12:04;;;;;;;;;;;11.00;99.90;;;;;;5006770;28;20297;-74
2023/11/22 01:14:29;;;;;;;;;;;11.00;99.90;;;;;;4992869;28;19914;-76
2023/11/22 01:16:55;;;;;;;;;;;11.00;99.90;;;;;;4993734;28;19917;-76
2023/11/22 01:19:20;;;;;;;;;;;11.00;99.90;;;;;;4993350;28;19924;-74
2023/11/22 01:21:46;;;;;;;;;;;11.00;99.90;;;;;;4993726;28;20340;-74
2023/11/22 01:24:12;;;;;;;;;;;11.00;99.90;;;;;;4993690;28;19917;-74
2023/11/22 01:26:38;;;;;;;;;;;10.90;99.90;;;;;;5009163;28;20376;-76
2023/11/22 01:29:04;;;;;;;;;;;10.90;99.90;;;;;;5013090;28;19914;-76
2023/11/22 01:31:29;;;;;;;;;;;11.00;99.90;;;;;;5012987;28;19988;-73
2023/11/22 01:33:55;;;;;;;;;;;11.00;99.90;;;;;;5016816;28;19914;-77
2023/11/22 01:36:20;;;;;;;;;;;11.00;99.90;;;;;;5017045;28;19910;-76
2023/11/22 01:38:46;;;;;;;;;;;11.00;99.90;;;;;;5031893;28;19911;-76
2023/11/22 01:41:13;;;;;;;;;;;10.90;99.90;;;;;;5016317;28;20297;-76
2023/11/22 01:43:39;;;;;;;;;;;10.90;99.90;;;;;;5016737;28;19922;-76
2023/11/22 01:46:06;;;;;;;;;;;10.90;99.90;;;;;;5016750;28;19909;-76
2023/11/22 01:48:32;;;;;;;;;;;10.90;99.90;;;;;;5032030;28;19916;-76
2023/11/22 01:50:58;;;;;;;;;;;10.90;99.90;;;;;;5016723;28;19988;-74
2023/11/22 01:53:24;;;;;;;;;;;10.90;99.90;;;;;;5016640;28;19920;-77
2023/11/22 01:55:50;;;;;;;;;;;10.90;99.90;;;;;;5016753;28;19952;-77
2023/11/22 01:58:15;;;;;;;;;;;10.90;99.90;;;;;;5016740;28;19952;-76
2023/11/22 02:00:48;;;;;;;;;;;10.90;99.90;;;;;;5016641;28;19931;-74
2023/11/22 02:03:14;;;;;;;;;;;10.80;99.90;;;;;;5016369;28;19917;-74
2023/11/22 02:05:42;;;;;;;;;;;10.90;99.90;;;;;;5016371;28;19913;-76
2023/11/22 02:08:09;;;;;;;;;;;10.80;99.90;;;;;;5014850;28;20009;-77
2023/11/22 02:10:36;;;;;;;;;;;10.80;99.90;;;;;;5016203;28;20389;-74
2023/11/22 02:13:04;;;;;;;;;;;10.90;99.90;;;;;;5002205;28;19917;-74
2023/11/22 02:15:39;;;;;;;;;;;10.90;99.90;;;;;;4996686;28;20005;-76
2023/11/22 02:18:06;;;;;;;;;;;10.80;99.90;;;;;;4996900;28;19910;-76
2023/11/22 02:20:31;;;;;;;;;;;10.80;99.90;;;;;;4996564;28;20460;-76
2023/11/22 02:22:58;;;;;;;;;;;10.80;99.90;;;;;;4996396;28;20020;-77
2023/11/22 02:25:23;;;;;;;;;;;10.80;99.90;;;;;;5001060;28;19913;-77
2023/11/22 02:27:49;;;;;;;;;;;10.90;99.90;;;;;;5007292;28;20414;-74
2023/11/22 02:30:15;;;;;;;;;;;10.80;99.90;;;;;;5015786;28;19910;-74
2023/11/22 02:32:40;;;;;;;;;;;10.80;99.90;;;;;;5015780;28;20312;-77
2023/11/22 02:35:07;;;;;;;;;;;10.80;99.90;;;;;;5015771;28;19916;-76
2023/11/22 02:37:33;;;;;;;;;;;10.80;99.90;;;;;;5015819;28;19956;-74
2023/11/22 02:40:05;;;;;;;;;;;10.90;99.90;;;;;;5015541;28;19916;-74
2023/11/22 02:42:30;;;;;;;;;;;10.90;99.90;;;;;;5015709;28;19910;-74
2023/11/22 02:44:57;;;;;;;;;;;10.90;99.90;;;;;;5015466;28;19925;-77
2023/11/22 02:47:22;;;;;;;;;;;10.90;99.90;;;;;;5015805;28;19959;-76
2023/11/22 02:49:48;;;;;;;;;;;10.90;99.90;;;;;;5015763;28;19909;-74
2023/11/22 02:52:14;;;;;;;;;;;10.90;99.90;;;;;;5015469;28;19924;-77
2023/11/22 02:54:43;;;;;;;;;;;10.90;99.90;;;;;;5015557;28;19909;-74
2023/11/22 02:57:09;;;;;;;;;;;10.90;99.90;;;;;;5015293;28;19992;-76
2023/11/22 02:59:34;;;;;;;;;;;10.80;99.90;;;;;;5015830;28;19941;-77
2023/11/22 03:02:01;;;;;;;;;;;10.80;99.90;;;;;;5015081;28;19909;-74
2023/11/22 03:04:28;;;;;;;;;;;10.80;99.90;;;;;;5014690;28;19913;-74
2023/11/22 03:06:54;;;;;;;;;;;10.80;99.90;;;;;;5015213;28;19996;-74
2023/11/22 03:09:19;;;;;;;;;;;10.80;99.90;;;;;;5015025;28;20004;-76
2023/11/22 03:11:45;;;;;;;;;;;10.80;99.90;;;;;;5011423;28;19937;-74
2023/11/22 03:14:10;;;;;;;;;;;10.80;99.90;;;;;;4995609;28;19914;-74
2023/11/22 03:16:38;;;;;;;;;;;10.80;99.90;;;;;;4994182;28;20266;-75
2023/11/22 03:19:04;;;;;;;;;;;10.80;99.90;;;;;;4994135;28;20000;-77
2023/11/22 03:21:29;;;;;;;;;;;10.80;99.90;;;;;;4995402;28;19945;-74
2023/11/22 03:23:55;;;;;;;;;;;10.80;99.90;;;;;;4993831;28;19920;-77
2023/11/22 03:26:20;;;;;;;;;;;10.80;99.90;;;;;;5005252;28;19913;-76
2023/11/22 03:28:46;;;;;;;;;;;10.90;99.90;;;;;;4997366;28;20380;-77
2023/11/22 03:31:11;;;;;;;;;;;10.90;99.90;;;;;;4995072;28;19933;-74
2023/11/22 03:33:36;;;;;;;;;;;10.90;99.90;;;;;;4996710;28;19925;-77
2023/11/22 03:36:05;;;;;;;;;;;10.80;99.90;;;;;;5015012;28;20411;-77
2023/11/22 03:38:30;;;;;;;;;;;10.80;99.90;;;;;;5014830;28;19913;-74
2023/11/22 03:40:56;;;;;;;;;;;10.80;99.90;;;;;;5013857;28;19916;-77
2023/11/22 03:43:21;;;;;;;;;;;10.80;99.90;;;;;;5014556;28;19924;-74
2023/11/22 03:45:47;;;;;;;;;;;10.80;99.90;;;;;;5014390;28;19914;-74
2023/11/22 03:48:12;;;;;;;;;;;10.80;99.90;;;;;;5014372;28;19960;-77
2023/11/22 03:50:38;;;;;;;;;;;10.80;99.90;;;;;;5014562;28;19916;-77
2023/11/22 03:53:03;;;;;;;;;;;10.80;99.90;;;;;;5014532;28;19964;-77
2023/11/22 03:55:29;;;;;;;;;;;10.80;99.90;;;;;;5013867;28;20365;-77
2023/11/22 03:57:54;;;;;;;;;;;10.80;99.90;;;;;;5014010;28;19913;-77
2023/11/22 04:00:20;;;;;;;;;;;10.80;99.90;;;;;;5014220;28;19973;-77
2023/11/22 04:02:45;;;;;;;;;;;10.80;99.90;;;;;;5013436;28;19920;-77
2023/11/22 04:05:12;;;;;;;;;;;10.80;99.90;;;;;;5013030;28;19921;-77
2023/11/22 04:07:39;;;;;;;;;;;10.90;99.90;;;;;;5014226;28;20418;-76
2023/11/22 04:10:05;;;;;;;;;;;10.80;99.90;;;;;;5014399;28;19909;-74
2023/11/22 04:12:32;;;;;;;;;;;10.80;99.90;;;;;;5004120;28;19910;-73
2023/11/22 04:14:57;;;;;;;;;;;10.80;99.90;;;;;;4994323;28;19916;-74
2023/11/22 04:17:23;;;;;;;;;;;10.80;99.90;;;;;;4994496;28;20360;-77
2023/11/22 04:19:48;;;;;;;;;;;10.80;99.90;;;;;;4994305;28;19965;-74
2023/11/22 04:22:14;;;;;;;;;;;10.80;99.90;;;;;;4993792;28;19917;-77
2023/11/22 04:24:39;;;;;;;;;;;10.80;99.90;;;;;;4994637;28;20384;-77
2023/11/22 04:27:05;;;;;;;;;;;10.80;99.90;;;;;;5004883;28;19964;-76
2023/11/22 04:29:31;;;;;;;;;;;10.80;99.90;;;;;;4994172;28;19909;-77
2023/11/22 04:31:56;;;;;;;;;;;10.80;99.90;;;;;;4994050;28;19918;-77
2023/11/22 04:34:22;;;;;;;;;;;10.80;99.90;;;;;;5001974;28;20008;-77
2023/11/22 04:36:47;;;;;;;;;;;10.80;99.90;;;;;;5013701;28;20392;-74
2023/11/22 04:39:13;;;;;;;;;;;10.90;99.90;;;;;;5013325;28;19955;-77
2023/11/22 04:41:38;;;;;;;;;;;10.80;99.90;;;;;;5013640;28;19997;-76
2023/11/22 04:44:04;;;;;;;;;;;10.80;99.90;;;;;;5013561;28;19917;-77
2023/11/22 04:46:30;;;;;;;;;;;10.80;99.90;;;;;;5013532;28;19910;-77
2023/11/22 04:48:55;;;;;;;;;;;10.80;99.90;;;;;;5013427;28;20300;-74
2023/11/22 04:51:21;;;;;;;;;;;10.80;99.90;;;;;;5013800;28;19959;-74
2023/11/22 04:53:46;;;;;;;;;;;10.80;99.90;;;;;;5013554;28;19960;-74
2023/11/22 04:56:12;;;;;;;;;;;10.80;99.90;;;;;;5002252;28;20423;-77
2023/11/22 04:58:37;;;;;;;;;;;10.80;99.90;;;;;;4993681;28;19910;-77
2023/11/22 05:01:04;;;;;;;;;;;10.80;99.90;;;;;;4994071;28;19976;-74
2023/11/22 05:03:30;;;;;;;;;;;10.80;99.90;;;;;;5006111;28;19928;-74
2023/11/22 05:05:55;;;;;;;;;;;10.80;99.90;;;;;;5013494;28;19913;-77
2023/11/22 05:08:21;;;;;;;;;;;10.80;99.90;;;;;;5015255;28;19964;-77
2023/11/22 05:10:46;;;;;;;;;;;10.80;99.90;;;;;;5017406;28;19913;-77
2023/11/22 05:13:12;;;;;;;;;;;10.80;99.90;;;;;;5017540;28;19975;-77
2023/11/22 05:15:37;;;;;;;;;;;10.80;99.90;;;;;;5017183;28;19909;-77
2023/11/22 05:18:03;;;;;;;;;;;10.80;99.90;;;;;;5017555;28;19960;-77
2023/11/22 05:20:28;;;;;;;;;;;10.80;99.90;;;;;;5017227;28;19925;-73
2023/11/22 05:22:54;;;;;;;;;;;10.70;99.90;;;;;;5017128;28;19910;-77
2023/11/22 05:25:20;;;;;;;;;;;10.70;99.90;;;;;;5011473;28;19949;-74
2023/11/22 05:27:45;;;;;;;;;;;10.70;99.90;;;;;;5005525;28;19968;-74
2023/11/22 05:30:11;;;;;;;;;;;10.70;99.90;;;;;;5012686;28;19913;-77
2023/11/22 05:32:36;;;;;;;;;;;10.70;99.90;;;;;;4997158;28;19918;-77
2023/11/22 05:35:03;;;;;;;;;;;10.70;99.90;;;;;;5013958;28;19952;-77
2023/11/22 05:37:28;;;;;;;;;;;10.70;99.90;;;;;;4997461;28;19910;-77
2023/11/22 05:39:55;;;;;;;;;;;10.70;99.90;;;;;;4997078;28;20296;-77
2023/11/22 05:42:20;;;;;;;;;;;10.70;99.90;;;;;;4997523;28;19925;-74
2023/11/22 05:44:46;;;;;;;;;;;10.70;99.90;;;;;;4997216;28;19918;-77
2023/11/22 05:47:12;;;;;;;;;;;10.70;99.90;;;;;;5011841;28;19925;-77
2023/11/22 05:49:38;;;;;;;;;;;10.70;99.90;;;;;;5003746;28;20323;-77
2023/11/22 05:52:04;;;;;;;;;;;10.70;99.90;;;;;;5002319;28;19913;-77
2023/11/22 05:54:30;;;;;;;;;;;10.70;99.90;;;;;;4997001;28;19917;-74
2023/11/22 05:56:55;;;;;;;;;;;10.70;99.90;;;;;;5013823;28;19917;-77
2023/11/22 05:59:21;;;;;;;;;;;10.70;99.90;;;;;;5016481;28;19931;-77
2023/11/22 06:01:46;;;;;;;;;;;10.70;99.90;;;;;;5016495;28;20395;-77
2023/11/22 06:04:12;;;;;;;;;;;10.70;99.90;;;;;;5015998;28;19917;-77
2023/11/22 06:06:37;;;;;;;;;;;10.70;99.90;;;;;;5016583;28;19910;-77
2023/11/22 06:09:05;;;;;;;;;;;10.70;99.90;;;;;;5016163;28;19924;-77
2023/11/22 06:11:30;;;;;;;;;;;10.70;99.90;;;;;;5014155;28;19909;-74
2023/11/22 06:13:56;;;;;;;;;;;10.70;99.90;;;;;;5005471;28;20055;-77
2023/11/22 06:16:22;;;;;;;;;;;10.70;99.90;;;;;;4999565;28;19910;-77
2023/11/22 06:18:47;;;;;;;;;;;10.70;99.90;;;;;;4996507;28;19929;-77
2023/11/22 06:21:13;;;;;;;;;;;10.70;99.90;;;;;;4996311;28;19917;-74
2023/11/22 06:23:38;;;;;;;;;;;10.80;99.90;;;;;;5011282;28;19921;-77
2023/11/22 06:26:04;;;;;;;;;;;10.80;99.90;;;;;;5002697;28;19922;-74
2023/11/22 06:28:30;;;;;;;;;;;10.80;99.90;;;;;;5003193;28;20324;-74
2023/11/22 06:30:55;;;;;;;;;;;10.80;99.90;;;;;;5010977;28;19928;-74
2023/11/22 06:33:21;;;;;;;;;;;10.80;99.90;;;;;;5015390;28;20357;-74
2023/11/22 06:35:47;;;;;;;;;;;10.70;99.90;;;;;;4996520;28;19914;-74
2023/11/22 06:38:12;;;;;;;;;;;10.80;99.90;;;;;;4995663;28;19913;-77
2023/11/22 06:40:38;;;;;;;;;;;10.80;99.90;;;;;;5012150;28;19913;-77
2023/11/22 06:43:04;;;;;;;;;;;10.80;99.90;;;;;;5015399;28;20384;-74
2023/11/22 06:45:31;;;;;;;;;;;10.80;99.90;;;;;;5015045;28;19913;-78
2023/11/22 06:47:56;;;;;;;;;;;10.80;99.90;;;;;;5015290;28;19914;-74
2023/11/22 06:50:22;;;;;;;;;;;10.80;99.90;;;;;;5014827;28;19922;-74
2023/11/22 06:52:49;;;;;;;;;;;10.80;99.90;;;;;;5015127;28;19948;-78
2023/11/22 06:55:15;;;;;;;;;;;10.80;99.90;;;;;;5011587;28;20316;-77
2023/11/22 06:57:40;;;;;;;;;;;10.80;99.90;;;;;;4995005;28;19918;-74
2023/11/22 07:00:09;;;;;;;;;;;10.80;99.90;;;;;;5004133;28;19921;-76
2023/11/22 07:02:37;;;;;;;;;;;10.80;99.90;;;;;;5019743;28;20299;-75
2023/11/22 07:05:03;;;;;;;;;;;10.80;99.90;;;;;;5009758;28;19917;-76
2023/11/22 07:07:29;;;;;;;;;;;10.70;99.90;;;;;;5007856;28;20399;-77
2023/11/22 07:09:56;;;;;;;;;;;10.80;99.90;;;;;;5004331;28;19914;-76
2023/11/22 07:12:22;;;;;;;;;;;10.70;99.90;;;;;;5008058;28;19936;-74
2023/11/22 07:14:49;;;;;;;;;;;10.70;99.90;;;;;;5006584;28;20360;-74
2023/11/22 07:17:15;;;;;;;;;;;10.80;99.90;;;;;;5007582;28;19924;-76
2023/11/22 07:19:46;;;;;;;;;;;10.80;99.90;;;;;;5000802;28;19918;-76
2023/11/22 07:22:19;;;;;;;;;;;10.80;99.90;;;;;;5000228;28;19913;-76
2023/11/22 07:24:45;;;;;;;;;;;10.80;99.90;;;;;;5006474;28;19932;-76
2023/11/22 07:27:14;;;;;;;;;;;10.80;99.90;;;;;;5008741;28;20304;-75
2023/11/22 07:29:40;;;;;;;;;;;10.70;99.90;;;;;;5000476;28;19917;-74
2023/11/22 07:32:07;;;;;;;;;;;10.80;99.90;;;;;;4995315;28;20419;-79
2023/11/22 07:34:33;;;;;;;;;;;10.80;99.90;;;;;;5008949;28;20335;-80
2023/11/22 07:36:59;;;;;;;;;;;10.70;99.90;;;;;;5007183;28;20396;-74
2023/11/22 07:39:27;;;;;;;;;;;10.80;99.90;;;;;;5004549;28;19917;-75
2023/11/22 07:41:56;;;;;;;;;;;10.80;99.90;;;;;;5003030;28;19940;-76
2023/11/22 07:44:22;;;;;;;;;;;10.80;99.90;;;;;;5002466;28;20389;-79
2023/11/22 07:46:47;;;;;;;;;;;10.90;99.90;;;;;;5011824;28;19920;-80
2023/11/22 07:49:13;;;;;;;;;;;10.90;99.90;;;;;;5001174;28;19933;-75
2023/11/22 07:51:39;;;;;;;;;;;10.90;99.90;;;;;;5000635;28;19929;-79
2023/11/22 07:54:05;;;;;;;;;;;10.90;99.90;;;;;;4995526;28;19914;-75
2023/11/22 07:56:32;;;;;;;;;;;10.90;99.90;;;;;;5003152;28;19996;-80
2023/11/22 07:58:58;;;;;;;;;;;10.90;99.90;;;;;;5007589;28;19918;-80
2023/11/22 08:01:25;;;;;;;;;;;10.80;99.90;;;;;;5000105;28;20313;-75
2023/11/22 08:03:51;;;;;;;;;;;10.90;99.90;;;;;;5005035;28;20384;-76
2023/11/22 08:06:17;;;;;;;;;;;10.90;99.90;;;;;;4994958;28;19918;-75
2023/11/22 08:08:45;;;;;;;;;;;10.90;99.90;;;;;;5007553;28;19967;-76
2023/11/22 08:11:14;;;;;;;;;;;10.90;99.90;;;;;;5009207;28;19921;-77
2023/11/22 08:13:44;;;;;;;;;;;10.90;99.90;;;;;;4995512;28;19968;-75
2023/11/22 08:16:10;;;;;;;;;;;11.00;99.90;;;;;;5009382;28;20276;-75
2023/11/22 08:18:36;;;;;;;;;;;10.90;99.90;;;;;;5000397;28;19914;-76
2023/11/22 08:21:02;;;;;;;;;;;11.00;99.90;;;;;;4991662;28;19925;-76
2023/11/22 08:23:27;;;;;;;;;;;11.00;99.90;;;;;;4998588;28;19928;-77
2023/11/22 08:25:53;;;;;;;;;;;11.00;99.90;;;;;;5005716;28;19913;-77
2023/11/22 08:28:18;;;;;;;;;;;11.00;99.90;;;;;;4996325;28;19937;-73
2023/11/22 08:30:44;;;;;;;;;;;11.00;99.90;;;;;;4991660;28;20017;-76
2023/11/22 08:33:10;;;;;;;;;;;11.00;99.90;;;;;;4991668;28;19918;-78
2023/11/22 08:35:35;;;;;;;;;;;11.10;99.90;;;;;;4999800;28;19920;-78
2023/11/22 08:38:03;;;;;;;;;;;11.10;99.90;;;;;;5002926;28;20392;-80
2023/11/22 08:40:28;;;;;;;;;;;11.20;99.90;;;;;;5008625;28;20407;-75
2023/11/22 08:42:54;;;;;;;;;;;11.20;99.90;;;;;;5011314;28;19922;-76
2023/11/22 08:45:20;;;;;;;;;;;11.30;99.90;;;;;;5009374;28;19918;-78
2023/11/22 08:47:46;;;;;;;;;;;11.30;99.90;;;;;;4993221;28;19924;-77
2023/11/22 08:50:11;;;;;;;;;;;11.30;99.90;;;;;;4997693;28;19913;-79
2023/11/22 08:52:38;;;;;;;;;;;11.40;99.90;;;;;;5004571;28;20395;-81
2023/11/22 08:55:07;;;;;;;;;;;11.60;99.90;;;;;;4999197;28;19922;-76
2023/11/22 08:57:37;;;;;;;;;;;11.60;99.90;;;;;;4993144;28;19914;-76
2023/11/22 09:00:07;;;;;;;;;;;11.60;99.90;;;;;;4993934;28;19921;-76
2023/11/22 09:02:33;;;;;;;;;;;11.60;99.90;;;;;;5007629;28;19936;-76
2023/11/22 09:04:59;;;;;;;;;;;11.70;99.90;;;;;;5002705;28;20008;-77
2023/11/22 09:07:24;;;;;;;;;;;11.70;99.90;;;;;;5006462;28;19960;-76
2023/11/22 09:09:51;;;;;;;;;;;11.80;99.90;;;;;;5005266;28;20307;-75
2023/11/22 09:12:20;;;;;;;;;;;11.80;99.90;;;;;;5004483;28;19914;-76
2023/11/22 09:14:46;;;;;;;;;;;11.80;99.90;;;;;;4992628;28;19918;-75
2023/11/22 09:17:12;;;;;;;;;;;11.80;99.90;;;;;;5002821;28;19928;-75
2023/11/22 09:19:37;;;;;;;;;;;11.90;99.90;;;;;;5010211;28;20296;-74
2023/11/22 09:22:03;;;;;;;;;;;11.90;99.90;;;;;;5002421;28;19914;-75
2023/11/22 09:24:29;;;;;;;;;;;12.00;99.90;;;;;;4996844;28;19922;-75
2023/11/22 09:26:54;;;;;;;;;;;11.90;99.90;;;;;;5006507;28;20007;-75
2023/11/22 09:29:20;;;;;;;;;;;11.90;99.90;;;;;;4991045;28;19920;-75
2023/11/22 09:31:46;;;;;;;;;;;11.90;99.90;;;;;;4990960;28;19941;-75
2023/11/22 09:34:13;;;;;;;;;;;12.00;99.90;;;;;;4998866;28;19940;-75
2023/11/22 09:36:38;;;;;;;;;;;12.00;99.90;;;;;;4992137;28;20392;-75
2023/11/22 09:39:08;;;;;;;;;;;12.30;99.90;;;;;;5008664;28;20008;-75
2023/11/22 09:41:37;;;;;;;;;;;12.50;99.90;;;;;;5008434;28;20381;-75
2023/11/22 09:44:04;;;;;;;;;;;12.50;99.90;;;;;;5009995;28;19924;-75
2023/11/22 09:46:30;;;;;;;;;;;12.20;99.90;;;;;;5007617;28;20388;-75
2023/11/22 09:48:56;;;;;;;;;;;12.10;99.90;;;;;;4996959;28;19922;-75
2023/11/22 09:51:29;;;;;;;;;;;12.10;99.90;;;;;;5005174;28;21212;-75
2023/11/22 09:54:07;;;;;;;;;;;12.20;99.90;;;;;;5004786;28;19917;-75
2023/11/22 09:56:33;;;;;;;;;;;12.10;99.90;;;;;;4996584;28;19960;-74
2023/11/22 09:59:00;;;;;;;;;;;12.00;99.90;;;;;;4995720;28;19918;-77
2023/11/22 10:01:30;;;;;;;;;;;12.30;99.90;;;;;;4994577;28;19918;-77
2023/11/22 10:03:56;;;;;;;;;;;12.50;99.90;;;;;;5009736;28;19918;-76
2023/11/22 10:06:22;;;;;;;;;;;12.80;99.90;;;;;;5014170;28;19960;-76
2023/11/22 10:08:48;;;;;;;;;;;13.00;99.90;;;;;;5005329;28;19957;-76
2023/11/22 10:11:15;;;;;;;;;;;13.00;99.90;;;;;;4998837;28;19963;-76
2023/11/22 10:13:40;;;;;;;;;;;12.80;99.90;;;;;;5013383;28;20017;-76
2023/11/22 10:16:10;;;;;;;;;;;12.80;99.90;;;;;;5010592;28;19996;-75
2023/11/22 10:18:39;;;;;;;;;;;12.60;99.90;;;;;;5009333;28;19921;-75
2023/11/22 10:21:18;;;;;;;;;;;12.40;99.90;;;;;;5012923;28;19921;-75
2023/11/22 10:23:44;;;;;;;;;;;12.30;99.90;;;;;;5000873;28;19917;-75
2023/11/22 10:26:09;;;;;;;;;;;12.40;99.90;;;;;;5008827;28;19917;-76
2023/11/22 10:28:35;;;;;;;;;;;12.50;99.90;;;;;;5013531;28;19909;-76
2023/11/22 10:31:00;;;;;;;;;;;12.50;99.90;;;;;;5013178;28;19969;-76
2023/11/22 10:33:26;;;;;;;;;;;12.60;99.90;;;;;;5013293;28;19917;-75
2023/11/22 10:35:52;;;;;;;;;;;12.60;99.90;;;;;;5004366;28;20274;-75
2023/11/22 10:38:18;;;;;;;;;;;12.60;99.90;;;;;;4992991;28;20344;-74
2023/11/22 10:40:45;;;;;;;;;;;12.60;99.90;;;;;;5012448;28;20407;-76
2023/11/22 10:43:14;;;;;;;;;;;12.70;99.90;;;;;;5013046;28;19921;-75
2023/11/22 10:45:41;;;;;;;;;;;12.70;99.90;;;;;;5011034;28;19953;-74
2023/11/22 10:48:08;;;;;;;;;;;12.90;99.90;;;;;;5011230;28;19936;-74
2023/11/22 10:50:34;;;;;;;;;;;13.00;99.90;;;;;;5011234;28;20545;-76
2023/11/22 10:53:01;;;;;;;;;;;13.10;99.90;;;;;;5012779;28;19913;-74
2023/11/22 10:55:27;;;;;;;;;;;13.20;99.90;;;;;;5008174;28;19968;-76
2023/11/22 10:57:55;;;;;;;;;;;13.20;99.90;;;;;;4993903;28;19920;-76
2023/11/22 11:00:22;;;;;;;;;;;13.10;99.90;;;;;;5011964;28;20357;-75
2023/11/22 11:02:54;;;;;;;;;;;13.00;99.90;;;;;;5008509;28;19922;-75
2023/11/22 11:05:28;;;;;;;;;;;13.10;99.90;;;;;;5000755;28;19914;-74
2023/11/22 11:08:03;;;;;;;;;;;13.00;99.90;;;;;;5009783;28;19921;-75
2023/11/22 11:10:30;;;;;;;;;;;13.20;99.90;;;;;;5010648;28;20008;-75
2023/11/22 11:12:56;;;;;;;;;;;13.40;99.90;;;;;;5012914;28;20433;-75
2023/11/22 11:15:22;;;;;;;;;;;13.60;99.90;;;;;;5011186;28;20000;-75
2023/11/22 11:17:48;;;;;;;;;;;13.60;99.90;;;;;;4999958;28;20360;-75
2023/11/22 11:20:15;;;;;;;;;;;13.50;99.90;;;;;;5003696;28;19929;-75
2023/11/22 11:22:41;;;;;;;;;;;13.60;99.90;;;;;;4996539;28;19917;-75
2023/11/22 11:25:08;;;;;;;;;;;13.80;99.90;;;;;;5012459;28;19917;-75
2023/11/22 11:27:35;;;;;;;;;;;13.80;99.90;;;;;;5006788;28;19922;-75
2023/11/22 11:30:02;;;;;;;;;;;14.00;99.90;;;;;;5008249;28;19992;-75
2023/11/22 11:32:34;;;;;;;;;;;13.90;99.90;;;;;;4997762;28;19999;-75
2023/11/22 11:35:01;;;;;;;;;;;13.80;99.90;;;;;;5006386;28;20000;-75
2023/11/22 11:37:29;;;;;;;;;;;13.30;99.90;;;;;;5000893;28;19924;-76
2023/11/22 11:39:55;;;;;;;;;;;13.10;99.90;;;;;;4995038;28;20004;-75
2023/11/22 11:42:20;;;;;;;;;;;13.30;99.90;;;;;;4997118;28;20004;-75
2023/11/22 11:45:01;;;;;;;;;;;13.50;99.90;;;;;;5009322;28;20294;-75
2023/11/22 11:47:26;;;;;;;;;;;13.80;99.90;;;;;;5024297;28;19984;-75
2023/11/22 11:49:52;;;;;;;;;;;14.10;99.90;;;;;;5006775;28;20388;-75
2023/11/22 11:52:17;;;;;;;;;;;14.00;99.90;;;;;;5005886;28;19921;-75
2023/11/22 11:54:44;;;;;;;;;;;13.30;99.90;;;;;;5013432;28;19914;-74
2023/11/22 11:57:10;;;;;;;;;;;13.30;99.90;;;;;;5006540;28;19918;-75
2023/11/22 11:59:36;;;;;;;;;;;13.30;99.90;;;;;;4998849;28;19970;-75
2023/11/22 12:02:05;;;;;;;;;;;13.50;99.90;;;;;;4995895;28;20240;-75
2023/11/22 12:04:31;;;;;;;;;;;13.50;99.90;;;;;;5010260;28;20043;-75
2023/11/22 12:06:57;;;;;;;;;;;13.50;99.90;;;;;;5008400;28;19913;-76
2023/11/22 12:09:27;;;;;;;;;;;13.60;99.90;;;;;;4991257;28;20392;-75
2023/11/22 12:11:55;;;;;;;;;;;13.80;99.90;;;;;;5000241;28;19918;-75
2023/11/22 12:14:22;;;;;;;;;;;14.00;99.90;;;;;;5006400;28;19910;-75
2023/11/22 12:16:50;;;;;;;;;;;14.10;99.90;;;;;;5005428;28;19921;-75
2023/11/22 12:19:26;;;;;;;;;;;13.70;99.90;;;;;;5009840;28;19918;-75
2023/11/22 12:21:52;;;;;;;;;;;13.80;99.90;;;;;;4993922;28;19917;-75
2023/11/22 12:24:18;;;;;;;;;;;13.60;99.90;;;;;;4999296;28;19950;-75
2023/11/22 12:26:44;;;;;;;;;;;13.30;99.90;;;;;;5008701;28;20151;-75
2023/11/22 12:29:13;;;;;;;;;;;13.70;99.90;;;;;;5003364;28;19920;-75
2023/11/22 12:31:50;;;;;;;;;;;14.30;99.90;;;;;;5003540;28;19931;-76
2023/11/22 12:34:16;;;;;;;;;;;14.60;99.90;;;;;;5007342;28;20004;-74
2023/11/22 12:36:42;;;;;;;;;;;14.40;99.90;;;;;;5009184;28;19914;-75
2023/11/22 12:39:16;;;;;;;;;;;14.30;99.90;;;;;;5008093;28;19933;-75
2023/11/22 12:41:43;;;;;;;;;;;14.40;99.90;;;;;;5003883;28;19914;-75
2023/11/22 12:44:08;;;;;;;;;;;14.00;99.90;;;;;;5000447;28;19922;-76
2023/11/22 12:46:48;;;;;;;;;;;14.50;99.90;;;;;;5000910;28;19941;-73
2023/11/22 12:49:15;;;;;;;;;;;15.00;99.90;;;;;;5007819;28;19984;-75
2023/11/22 12:51:45;;;;;;;;;;;14.70;99.90;;;;;;5002686;28;19937;-75
2023/11/22 12:54:11;;;;;;;;;;;14.90;99.90;;;;;;5004285;28;20356;-75
2023/11/22 12:56:36;;;;;;;;;;;15.20;99.90;;;;;;5002275;28;19914;-74
2023/11/22 12:59:02;;;;;;;;;;;15.30;99.90;;;;;;5006691;28;20343;-73
2023/11/22 13:01:28;;;;;;;;;;;14.80;99.90;;;;;;5009156;28;19917;-75
2023/11/22 13:03:53;;;;;;;;;;;14.60;99.90;;;;;;5010517;28;19924;-76
2023/11/22 13:06:19;;;;;;;;;;;15.20;99.90;;;;;;5006912;28;19920;-75
2023/11/22 13:08:44;;;;;;;;;;;15.20;99.90;;;;;;5009713;28;19929;-74
2023/11/22 13:11:10;;;;;;;;;;;14.80;99.90;;;;;;4999074;28;19921;-74
2023/11/22 13:13:35;;;;;;;;;;;15.00;99.90;;;;;;5008339;28;19924;-74
2023/11/22 13:16:01;;;;;;;;;;;14.20;99.90;;;;;;5004338;28;19913;-75
2023/11/22 13:18:27;;;;;;;;;;;14.30;99.90;;;;;;5006336;28;19918;-75
2023/11/22 13:20:52;;;;;;;;;;;14.30;99.90;;;;;;4995945;28;19925;-74
2023/11/22 13:23:18;;;;;;;;;;;14.40;99.90;;;;;;5008072;28;20580;-74
2023/11/22 13:25:45;;;;;;;;;;;14.70;99.90;;;;;;5005844;28;19914;-74
2023/11/22 13:28:11;;;;;;;;;;;14.80;99.90;;;;;;5004075;28;20021;-76
2023/11/22 13:30:36;;;;;;;;;;;15.10;99.90;;;;;;5001255;28;20004;-75
2023/11/22 13:33:02;;;;;;;;;;;15.10;99.90;;;;;;5011732;28;20757;-74
2023/11/22 13:35:31;;;;;;;;;;;14.90;99.90;;;;;;5011878;28;19957;-73
2023/11/22 13:37:57;;;;;;;;;;;14.30;99.90;;;;;;5006143;28;19956;-74
2023/11/22 13:40:25;;;;;;;;;;;14.30;99.90;;;;;;5007309;28;19917;-75
2023/11/22 13:42:52;;;;;;;;;;;14.60;99.90;;;;;;4996827;28;19949;-76
2023/11/22 13:45:18;;;;;;;;;;;14.80;99.90;;;;;;5011112;28;19918;-77
2023/11/22 13:47:45;;;;;;;;;;;15.20;99.90;;;;;;5002055;28;19925;-75
2023/11/22 13:50:18;;;;;;;;;;;14.90;99.90;;;;;;5004076;28;19922;-75
2023/11/22 13:52:54;;;;;;;;;;;14.90;99.90;;;;;;5009099;28;19917;-77
2023/11/22 13:55:23;;;;;;;;;;;14.60;99.90;;;;;;5013520;28;19992;-77
2023/11/22 13:57:52;;;;;;;;;;;13.70;99.90;;;;;;5006975;28;19925;-75
2023/11/22 14:00:19;;;;;;;;;;;13.80;99.90;;;;;;5002791;28;19941;-75
2023/11/22 14:02:46;;;;;;;;;;;14.00;99.90;;;;;;5009150;28;19921;-74
2023/11/22 14:05:12;;;;;;;;;;;13.90;99.90;;;;;;5000178;28;19921;-78
2023/11/22 14:07:37;;;;;;;;;;;13.50;99.90;;;;;;5002968;28;19940;-77
2023/11/22 14:10:03;;;;;;;;;;;13.10;99.90;;;;;;5007230;28;19933;-74
2023/11/22 14:12:30;;;;;;;;;;;13.40;99.90;;;;;;5007856;28;19914;-74